Gustavsfors, Sweden

5:29 AM CEST on August 26, 2016 (GMT +0200)
Via dei Giardini | | Change Station

Elev 452 ft 60.14 °N, 13.45 °E | Updated 6 minutes ago

Mostly Cloudy
Mostly Cloudy
59.9 °F
Feels Like 59.9 °F
N
0.6
Wind Variable Wind from NNW
Gusts 1.2 mph

Today
High -- | Low -- °F
--% Chance of Precip.
Yesterday
High -- | Low -- °F
Precip. -- in
Pressure 29.98 in
Visibility 1.4 miles
Clouds Mostly Cloudy 100 ft
Dew Point 59 °F
Humidity 96%
Rainfall 0.00 in
Snow Depth Not available.
5:45 AM 8:25 PM
Last Quarter, 39% visible
METAR ESOK 260320Z AUTO 09005KT 2300 BKN001/// 16/16 Q1015
Pressure 29.98 in
Visibility 1.4 miles
Clouds Mostly Cloudy 100 ft
Dew Point 59 °F
Humidity 96%
Rainfall 0.00 in
Snow Depth Not available.
5:45 AM 8:25 PM
Last Quarter, 39% visible
METAR ESOK 260320Z AUTO 09005KT 2300 BKN001/// 16/16 Q1015

10-Day Weather Forecast

×

Almanac

Astronomy

Aug. 26, 2016 Rise Set
Actual Time
Civil Twilight
Nautical Twilight
Astronomical Twilight
Moon
Length of Visible Light
Length of Day
Tomorrow will be .
, % of the Moon is Illuminated

Today's Extremes

Country Highs Country Lows

Community

WunderPhotos

Upload Photos

1,935,042 photos uploaded!

WunderBlog® & News

Nearby

Air Quality

  Air Quality AQ Index Pollutant
Not available.

Snow Depth

Station Depth Elevation

Earthquake Activity

City Distance Mag. Time & Date
Minimum magnitude displayed is 2.5.

Coastal Water Temperatures

Place Temperature

Stations

Nearby Weather Stations

Station Location Temp. Windchill Dew Point Humidity Wind Precip. Elev Updated Type